Time;durP1;ratioP1;P1;durP2;ratioP2;P2;SDS_P1;SDS_P2;PMS_P1;PMS_P2;Temp;Humidity;BMP_temperature;BMP_pressure;BME280_temperature;BME280_humidity;BME280_pressure;Samples;Min_cycle;Max_cycle;Signal;HPM_P1;HPM_P2
2024/01/18 00:00:25;;;;;;;14.45;12.32;;;1.80;99.90;;;;;;5073650;28;20212;-63
2024/01/18 00:02:52;;;;;;;16.90;12.40;;;1.80;99.90;;;;;;5073650;28;20291;-63
2024/01/18 00:05:19;;;;;;;17.38;13.13;;;1.80;99.90;;;;;;5073554;28;20288;-64
2024/01/18 00:07:46;;;;;;;13.48;12.15;;;1.90;99.90;;;;;;5073500;28;20205;-63
2024/01/18 00:10:13;;;;;;;15.80;11.48;;;1.90;99.90;;;;;;5072961;28;20248;-63
2024/01/18 00:12:42;;;;;;;13.50;10.77;;;1.90;99.90;;;;;;5073497;28;20230;-64
2024/01/18 00:15:11;;;;;;;13.30;11.02;;;1.90;99.90;;;;;;5073255;28;20225;-63
2024/01/18 00:17:37;;;;;;;16.98;10.57;;;1.90;99.90;;;;;;5073528;28;20213;-64
2024/01/18 00:20:05;;;;;;;15.18;11.88;;;1.80;99.90;;;;;;5072994;28;20208;-64
2024/01/18 00:22:32;;;;;;;12.63;10.23;;;1.80;99.90;;;;;;5072441;28;20784;-64
2024/01/18 00:24:59;;;;;;;13.50;12.18;;;1.90;99.90;;;;;;5071215;28;20204;-63
2024/01/18 00:27:26;;;;;;;14.63;12.02;;;1.80;99.90;;;;;;5073439;28;20206;-64
2024/01/18 00:29:52;;;;;;;12.63;11.13;;;1.80;99.90;;;;;;5073053;28;20198;-64
2024/01/18 00:32:22;;;;;;;12.85;10.15;;;1.80;99.90;;;;;;5072919;28;20202;-64
2024/01/18 00:34:48;;;;;;;10.93;9.85;;;1.80;99.90;;;;;;5072929;28;20225;-64
2024/01/18 00:37:15;;;;;;;14.43;10.43;;;1.80;99.90;;;;;;5073201;28;20228;-63
2024/01/18 00:39:43;;;;;;;10.60;9.25;;;1.80;99.90;;;;;;5072664;28;20212;-64
2024/01/18 00:42:10;;;;;;;11.20;10.02;;;1.80;99.90;;;;;;5072788;28;20244;-64
2024/01/18 00:44:37;;;;;;;14.90;9.10;;;1.80;99.90;;;;;;5073124;28;20233;-64
2024/01/18 00:47:04;;;;;;;12.05;9.63;;;1.80;99.90;;;;;;5073172;28;20592;-63
2024/01/18 00:49:33;;;;;;;10.43;9.15;;;1.80;99.90;;;;;;5072692;28;20202;-63
2024/01/18 00:52:01;;;;;;;11.05;9.18;;;1.80;99.90;;;;;;5066011;28;20213;-64
2024/01/18 00:54:28;;;;;;;12.85;9.98;;;1.80;99.90;;;;;;5068231;28;20225;-64
2024/01/18 00:56:55;;;;;;;11.45;9.90;;;1.80;99.90;;;;;;5071643;28;20212;-64
2024/01/18 00:59:22;;;;;;;11.00;8.10;;;1.80;99.90;;;;;;5072208;28;20214;-64
2024/01/18 01:01:48;;;;;;;12.20;8.88;;;1.80;99.90;;;;;;5071948;28;20768;-64
2024/01/18 01:04:15;;;;;;;11.13;9.00;;;1.80;99.90;;;;;;5072209;28;20218;-64
2024/01/18 01:06:43;;;;;;;9.95;7.78;;;1.80;99.90;;;;;;5072359;28;20587;-64
2024/01/18 01:09:11;;;;;;;9.75;8.07;;;1.90;99.90;;;;;;5072360;28;20212;-64
2024/01/18 01:11:38;;;;;;;8.70;7.72;;;1.80;99.90;;;;;;5072057;28;20248;-64
2024/01/18 01:14:05;;;;;;;7.75;6.95;;;1.80;99.90;;;;;;5072310;28;20226;-64
2024/01/18 01:16:32;;;;;;;10.63;8.05;;;1.80;99.90;;;;;;5072165;28;20575;-64
2024/01/18 01:18:58;;;;;;;9.73;7.53;;;1.80;99.90;;;;;;5071923;28;20208;-64
2024/01/18 01:21:25;;;;;;;10.38;8.10;;;1.80;99.90;;;;;;5072244;28;20232;-64
2024/01/18 01:23:56;;;;;;;8.27;7.47;;;1.80;99.90;;;;;;5071952;28;20221;-64
2024/01/18 01:26:22;;;;;;;7.18;6.13;;;1.80;99.90;;;;;;5071985;28;20212;-64
2024/01/18 01:28:49;;;;;;;6.00;5.40;;;1.80;99.90;;;;;;5072067;28;20206;-64
2024/01/18 01:31:17;;;;;;;5.97;5.38;;;1.90;99.90;;;;;;5071682;28;20206;-64
2024/01/18 01:33:43;;;;;;;6.43;5.93;;;1.90;99.90;;;;;;5070925;28;20229;-64
2024/01/18 01:36:10;;;;;;;5.20;4.80;;;1.90;99.90;;;;;;5071676;28;20202;-64
2024/01/18 01:38:37;;;;;;;5.00;4.60;;;1.90;99.90;;;;;;5071734;28;20201;-65
2024/01/18 01:41:06;;;;;;;5.80;5.30;;;1.90;99.90;;;;;;5071618;28;20209;-64
2024/01/18 01:43:33;;;;;;;6.78;5.47;;;2.00;99.90;;;;;;5071729;28;20256;-64
2024/01/18 01:46:00;;;;;;;6.82;4.45;;;2.00;99.90;;;;;;5071447;28;20216;-64
2024/01/18 01:48:27;;;;;;;6.10;5.60;;;2.00;99.90;;;;;;5071694;28;20297;-64
2024/01/18 01:50:54;;;;;;;5.60;5.13;;;2.00;99.90;;;;;;5071110;28;20312;-64
2024/01/18 01:53:22;;;;;;;5.85;4.90;;;2.00;99.90;;;;;;5070402;28;20231;-64
2024/01/18 01:55:49;;;;;;;5.63;5.13;;;2.00;99.90;;;;;;5070280;28;20222;-64
2024/01/18 01:58:18;;;;;;;4.10;3.78;;;2.00;99.90;;;;;;5070614;28;20248;-64
2024/01/18 02:00:45;;;;;;;5.82;5.32;;;2.00;99.90;;;;;;5071190;28;20209;-64
2024/01/18 02:03:12;;;;;;;6.18;5.45;;;2.00;99.90;;;;;;5071590;28;20228;-64
2024/01/18 02:05:40;;;;;;;5.78;4.75;;;2.10;99.90;;;;;;5071957;28;20202;-64
2024/01/18 02:08:07;;;;;;;5.70;4.72;;;2.10;99.90;;;;;;5071835;28;20210;-64
2024/01/18 02:10:34;;;;;;;7.95;6.95;;;2.10;99.90;;;;;;5071555;28;20292;-64
2024/01/18 02:13:02;;;;;;;5.35;4.85;;;2.10;99.90;;;;;;5071531;28;20229;-64
2024/01/18 02:15:30;;;;;;;5.70;4.07;;;2.10;99.90;;;;;;5071797;28;20252;-64
2024/01/18 02:17:57;;;;;;;3.92;3.63;;;2.00;99.90;;;;;;5071492;28;20237;-64
2024/01/18 02:20:24;;;;;;;5.15;4.65;;;2.00;99.90;;;;;;5071610;28;20210;-64
2024/01/18 02:22:51;;;;;;;5.80;4.90;;;2.00;99.90;;;;;;5071545;28;20235;-64
2024/01/18 02:25:24;;;;;;;6.07;4.85;;;1.90;99.90;;;;;;5071641;28;20233;-64
2024/01/18 02:27:54;;;;;;;8.05;4.32;;;2.00;99.90;;;;;;5071037;28;20202;-64
2024/01/18 02:30:21;;;;;;;4.93;4.00;;;1.90;99.90;;;;;;5071375;28;20301;-64
2024/01/18 02:32:47;;;;;;;4.80;4.47;;;1.90;99.90;;;;;;5071496;28;20316;-64
2024/01/18 02:35:14;;;;;;;5.20;4.70;;;1.90;99.90;;;;;;5071493;28;20786;-64
2024/01/18 02:37:41;;;;;;;6.97;4.93;;;1.90;99.90;;;;;;5071466;28;20542;-64
2024/01/18 02:40:09;;;;;;;5.60;4.95;;;1.90;99.90;;;;;;5070950;28;20206;-64
2024/01/18 02:42:37;;;;;;;6.38;5.18;;;1.90;99.90;;;;;;5071466;28;20233;-63
2024/01/18 02:45:05;;;;;;;5.15;4.65;;;1.90;99.90;;;;;;5073882;28;20212;-63
2024/01/18 02:47:32;;;;;;;4.25;3.95;;;1.90;99.90;;;;;;5075615;28;20205;-64
2024/01/18 02:49:59;;;;;;;5.60;5.00;;;1.80;99.90;;;;;;5075477;28;20638;-64
2024/01/18 02:52:26;;;;;;;4.20;3.90;;;1.90;99.90;;;;;;5075294;28;20205;-64
2024/01/18 02:54:53;;;;;;;5.50;4.88;;;1.90;99.90;;;;;;5075211;28;20628;-63
2024/01/18 02:57:20;;;;;;;5.32;4.35;;;1.80;99.90;;;;;;5075586;28;20205;-64
2024/01/18 02:59:48;;;;;;;7.45;6.00;;;1.80;99.90;;;;;;5075245;28;20222;-64
2024/01/18 03:02:15;;;;;;;5.40;4.90;;;1.90;99.90;;;;;;5075180;28;20209;-63
2024/01/18 03:04:42;;;;;;;6.10;5.60;;;1.90;99.90;;;;;;5075274;28;20398;-63
2024/01/18 03:07:09;;;;;;;7.32;6.63;;;1.90;99.90;;;;;;5075188;28;20209;-63
2024/01/18 03:09:36;;;;;;;6.72;6.13;;;1.90;99.90;;;;;;5074855;28;20222;-64
2024/01/18 03:12:03;;;;;;;6.63;5.35;;;1.90;99.90;;;;;;5074983;28;20209;-64
2024/01/18 03:14:29;;;;;;;6.57;5.88;;;2.00;99.90;;;;;;5074035;28;20229;-63
2024/01/18 03:16:58;;;;;;;6.82;6.22;;;2.00;99.90;;;;;;5074187;28;21468;-63
2024/01/18 03:19:24;;;;;;;6.07;5.50;;;2.00;99.90;;;;;;5074873;28;20368;-63
2024/01/18 03:21:51;;;;;;;7.72;6.97;;;1.90;99.90;;;;;;5074671;28;20201;-63
2024/01/18 03:24:18;;;;;;;6.93;6.22;;;1.90;99.90;;;;;;5075074;28;20666;-63
2024/01/18 03:26:45;;;;;;;4.93;4.50;;;1.90;99.90;;;;;;5074847;28;20210;-63
2024/01/18 03:29:12;;;;;;;4.75;4.35;;;1.90;99.90;;;;;;5074707;28;20237;-63
2024/01/18 03:31:39;;;;;;;4.80;4.40;;;1.90;99.90;;;;;;5074405;28;20197;-63
2024/01/18 03:34:07;;;;;;;6.57;5.97;;;1.90;99.90;;;;;;5074386;28;20232;-64
2024/01/18 03:36:34;;;;;;;6.30;5.55;;;1.90;99.90;;;;;;5074356;28;20251;-63
2024/01/18 03:39:01;;;;;;;6.43;5.85;;;1.90;99.90;;;;;;5074495;28;20296;-63
2024/01/18 03:41:28;;;;;;;6.57;5.78;;;1.90;99.90;;;;;;5074387;28;20213;-63
2024/01/18 03:43:54;;;;;;;6.35;5.75;;;1.90;99.90;;;;;;5074216;28;20244;-63
2024/01/18 03:46:21;;;;;;;5.30;4.80;;;1.90;99.90;;;;;;5074428;28;20209;-64
2024/01/18 03:48:48;;;;;;;6.38;5.82;;;1.90;99.90;;;;;;5074323;28;20224;-63
2024/01/18 03:51:16;;;;;;;6.82;6.13;;;1.90;99.90;;;;;;5074274;28;20205;-64
2024/01/18 03:53:44;;;;;;;9.55;8.60;;;1.80;99.90;;;;;;5073503;28;20240;-63
2024/01/18 03:56:12;;;;;;;9.23;8.32;;;1.80;99.90;;;;;;5073173;28;20233;-63
2024/01/18 03:58:41;;;;;;;11.55;8.82;;;1.80;99.90;;;;;;5074026;28;20232;-64
2024/01/18 04:01:07;;;;;;;10.50;8.73;;;1.80;99.90;;;;;;5074054;28;20209;-63
2024/01/18 04:03:34;;;;;;;10.32;9.35;;;1.80;99.90;;;;;;5073701;28;20236;-64
2024/01/18 04:06:01;;;;;;;9.30;8.35;;;1.80;99.90;;;;;;5074149;28;20208;-63
2024/01/18 04:08:29;;;;;;;9.43;8.52;;;1.80;99.90;;;;;;5072899;28;20699;-63
2024/01/18 04:10:56;;;;;;;9.70;8.65;;;1.80;99.90;;;;;;5073854;28;20201;-63
2024/01/18 04:13:23;;;;;;;9.27;7.88;;;1.80;99.90;;;;;;5074042;28;20611;-63
2024/01/18 04:15:50;;;;;;;11.05;9.23;;;1.80;99.90;;;;;;5073693;28;20316;-63
2024/01/18 04:18:16;;;;;;;11.63;10.40;;;1.80;99.90;;;;;;5073961;28;20593;-63
2024/01/18 04:20:43;;;;;;;10.75;9.02;;;1.80;99.90;;;;;;5073510;28;20207;-64
2024/01/18 04:23:10;;;;;;;10.25;9.13;;;1.80;99.90;;;;;;5073779;28;20737;-63
2024/01/18 04:25:38;;;;;;;9.98;8.30;;;1.80;99.90;;;;;;5073793;28;20293;-64
2024/01/18 04:28:06;;;;;;;11.20;9.45;;;1.80;99.90;;;;;;5073472;28;20216;-64
2024/01/18 04:30:32;;;;;;;13.45;11.55;;;1.80;99.90;;;;;;5073680;28;20214;-64
2024/01/18 04:32:59;;;;;;;13.85;11.95;;;1.80;99.90;;;;;;5073637;28;20601;-63
2024/01/18 04:35:26;;;;;;;14.27;11.60;;;1.80;99.90;;;;;;5073522;28;20317;-63
2024/01/18 04:37:53;;;;;;;15.70;12.30;;;1.80;99.90;;;;;;5073607;28;20304;-63
2024/01/18 04:40:20;;;;;;;14.38;11.60;;;1.90;99.90;;;;;;5072476;28;20208;-64
2024/01/18 04:42:48;;;;;;;15.48;13.45;;;1.90;99.90;;;;;;5073066;28;20761;-64
2024/01/18 04:45:15;;;;;;;15.55;13.10;;;1.80;99.90;;;;;;5073416;28;20609;-64
2024/01/18 04:47:42;;;;;;;14.18;11.85;;;1.90;99.90;;;;;;5073426;28;20579;-63
2024/01/18 04:50:09;;;;;;;13.00;11.30;;;1.90;99.90;;;;;;5073114;28;20206;-64
2024/01/18 04:52:35;;;;;;;12.50;10.70;;;1.90;99.90;;;;;;5073091;28;20309;-64
2024/01/18 04:55:04;;;;;;;11.73;10.53;;;1.80;99.90;;;;;;5073135;28;20292;-64
2024/01/18 04:57:31;;;;;;;17.05;11.55;;;1.80;99.90;;;;;;5073063;28;20483;-63
2024/01/18 05:00:00;;;;;;;13.85;11.63;;;1.80;99.90;;;;;;5072470;28;21016;-64
2024/01/18 05:02:27;;;;;;;11.88;10.13;;;1.80;99.90;;;;;;5073009;28;20206;-63
2024/01/18 05:04:54;;;;;;;12.13;10.82;;;1.80;99.90;;;;;;5072967;28;20209;-64
2024/01/18 05:07:22;;;;;;;14.38;12.85;;;1.80;99.90;;;;;;5072843;28;20206;-63
2024/01/18 05:09:49;;;;;;;16.05;12.43;;;1.80;99.90;;;;;;5072527;28;20212;-63
2024/01/18 05:12:16;;;;;;;14.35;12.90;;;1.80;99.90;;;;;;5072718;28;20211;-64
2024/01/18 05:14:42;;;;;;;14.82;12.60;;;1.80;99.90;;;;;;5072851;28;20308;-64
2024/01/18 05:17:12;;;;;;;17.17;13.25;;;1.80;99.90;;;;;;5072727;28;20228;-63
2024/01/18 05:19:39;;;;;;;17.83;12.35;;;1.90;99.90;;;;;;5072549;28;20259;-64
2024/01/18 05:22:07;;;;;;;14.00;12.07;;;1.80;99.90;;;;;;5072674;28;20212;-64
2024/01/18 05:24:34;;;;;;;16.77;13.60;;;1.80;99.90;;;;;;5072350;28;20572;-63
2024/01/18 05:27:01;;;;;;;13.95;12.60;;;1.80;99.90;;;;;;5072554;28;20202;-64
2024/01/18 05:29:27;;;;;;;17.50;13.77;;;1.80;99.90;;;;;;5072368;28;20289;-64
2024/01/18 05:31:54;;;;;;;17.15;13.23;;;1.80;99.90;;;;;;5072072;28;20208;-64
2024/01/18 05:34:23;;;;;;;15.95;12.85;;;1.80;99.90;;;;;;5072228;28;20225;-63
2024/01/18 05:36:49;;;;;;;19.08;13.52;;;1.90;99.90;;;;;;5072103;28;20236;-64
2024/01/18 05:39:16;;;;;;;22.73;16.00;;;1.80;99.90;;;;;;5072273;28;20215;-64
2024/01/18 05:41:43;;;;;;;17.45;13.75;;;1.80;99.90;;;;;;5072151;28;20701;-63
2024/01/18 05:44:10;;;;;;;17.25;12.95;;;1.90;99.90;;;;;;5072124;28;20326;-63
2024/01/18 05:46:37;;;;;;;19.17;15.18;;;1.80;99.90;;;;;;5071735;28;20280;-63
2024/01/18 05:49:04;;;;;;;15.18;13.60;;;1.80;99.90;;;;;;5071939;28;20255;-63
2024/01/18 05:51:33;;;;;;;16.73;13.88;;;1.80;99.90;;;;;;5071789;28;20649;-63
2024/01/18 05:54:00;;;;;;;15.68;14.05;;;1.80;99.90;;;;;;5071922;28;20787;-63
2024/01/18 05:56:27;;;;;;;17.42;13.80;;;1.80;99.90;;;;;;5072029;28;20312;-63
2024/01/18 05:58:53;;;;;;;22.15;15.25;;;1.80;99.90;;;;;;5071837;28;20707;-63
2024/01/18 06:01:21;;;;;;;17.48;15.50;;;1.80;99.90;;;;;;5071738;28;20225;-63
2024/01/18 06:03:48;;;;;;;21.50;15.63;;;1.80;99.90;;;;;;5071825;28;20317;-63
2024/01/18 06:06:16;;;;;;;19.05;16.17;;;1.80;99.90;;;;;;5071703;28;20297;-63
2024/01/18 06:08:44;;;;;;;21.83;15.52;;;1.80;99.90;;;;;;5071708;28;20201;-64
2024/01/18 06:11:10;;;;;;;22.23;16.00;;;1.80;99.90;;;;;;5071772;28;20216;-63
2024/01/18 06:13:39;;;;;;;25.58;17.90;;;1.80;99.90;;;;;;5071624;28;20229;-63
2024/01/18 06:16:09;;;;;;;17.60;15.63;;;1.80;99.90;;;;;;5071225;28;20229;-63
2024/01/18 06:18:36;;;;;;;19.05;16.00;;;1.80;99.90;;;;;;5071039;28;20908;-63
2024/01/18 06:21:04;;;;;;;20.50;15.55;;;1.80;99.90;;;;;;5070434;28;20216;-64
2024/01/18 06:23:31;;;;;;;20.42;15.77;;;1.80;99.90;;;;;;5071392;28;20233;-63
2024/01/18 06:25:59;;;;;;;19.58;14.60;;;1.80;99.90;;;;;;5071609;28;20645;-63
2024/01/18 06:28:26;;;;;;;17.70;14.75;;;1.80;99.90;;;;;;5071459;28;20212;-63
2024/01/18 06:30:53;;;;;;;17.00;14.52;;;1.80;99.90;;;;;;5070969;28;20202;-63
2024/01/18 06:33:19;;;;;;;21.55;15.38;;;1.70;99.90;;;;;;5071409;28;20681;-63
2024/01/18 06:35:46;;;;;;;21.35;15.77;;;1.80;99.90;;;;;;5070982;28;20621;-63
2024/01/18 06:38:13;;;;;;;23.15;16.10;;;1.70;99.90;;;;;;5071128;28;20197;-63
2024/01/18 06:40:42;;;;;;;20.75;16.08;;;1.80;99.90;;;;;;5071324;28;20209;-63
2024/01/18 06:43:11;;;;;;;18.42;14.07;;;1.80;99.90;;;;;;5071338;28;20647;-63
2024/01/18 06:45:38;;;;;;;19.20;15.30;;;1.80;99.90;;;;;;5071253;28;20211;-63
2024/01/18 06:48:05;;;;;;;17.45;12.93;;;1.80;99.90;;;;;;5071561;28;20210;-63
2024/01/18 06:50:32;;;;;;;16.42;13.38;;;1.70;99.90;;;;;;5056478;28;20202;-63
2024/01/18 06:52:59;;;;;;;16.65;13.68;;;1.70;99.90;;;;;;5069552;28;20240;-63
2024/01/18 06:55:26;;;;;;;17.02;11.73;;;1.60;99.90;;;;;;5071040;28;20206;-63
2024/01/18 06:57:53;;;;;;;13.68;11.50;;;1.60;99.90;;;;;;5069025;28;20206;-63
2024/01/18 07:00:23;;;;;;;13.45;11.60;;;1.60;99.90;;;;;;5069365;28;20292;-63
2024/01/18 07:02:50;;;;;;;12.30;10.05;;;1.60;99.90;;;;;;5065248;28;20233;-63
2024/01/18 07:05:17;;;;;;;13.60;9.73;;;1.60;99.90;;;;;;5070249;28;20213;-63
2024/01/18 07:07:44;;;;;;;14.15;11.63;;;1.60;99.90;;;;;;5069576;28;20297;-63
2024/01/18 07:10:11;;;;;;;13.00;9.85;;;1.60;99.90;;;;;;5070605;28;20202;-63
2024/01/18 07:12:38;;;;;;;13.13;11.00;;;1.60;99.90;;;;;;5070081;28;20315;-63
2024/01/18 07:15:07;;;;;;;11.82;10.68;;;1.60;99.90;;;;;;5070539;28;20209;-63
2024/01/18 07:17:35;;;;;;;14.05;11.45;;;1.60;99.90;;;;;;5070899;28;20252;-63
2024/01/18 07:20:02;;;;;;;17.30;9.98;;;1.60;99.90;;;;;;5070595;28;20215;-63
2024/01/18 07:22:29;;;;;;;12.40;9.20;;;1.60;99.90;;;;;;5070789;28;20233;-63
2024/01/18 07:24:56;;;;;;;12.18;10.73;;;1.60;99.90;;;;;;5070346;28;20298;-63
2024/01/18 07:27:23;;;;;;;11.93;10.23;;;1.60;99.90;;;;;;5070601;28;20208;-63
2024/01/18 07:29:50;;;;;;;11.52;9.15;;;1.70;99.90;;;;;;5070979;28;20208;-63
2024/01/18 07:32:17;;;;;;;12.15;10.27;;;1.70;99.90;;;;;;5074357;28;20668;-63
2024/01/18 07:34:45;;;;;;;9.35;8.45;;;1.60;99.90;;;;;;5074163;28;20212;-63
2024/01/18 07:37:13;;;;;;;9.35;8.00;;;1.60;99.90;;;;;;5074192;28;20719;-63
2024/01/18 07:39:40;;;;;;;10.40;8.63;;;1.60;99.90;;;;;;5073926;28;20244;-63
2024/01/18 07:42:07;;;;;;;12.07;10.10;;;1.60;99.90;;;;;;5074491;28;20237;-63
2024/01/18 07:44:34;;;;;;;10.15;9.25;;;1.60;99.90;;;;;;5074283;28;20735;-62
2024/01/18 07:47:01;;;;;;;11.77;9.38;;;1.60;99.90;;;;;;5074142;28;20336;-63
2024/01/18 07:49:28;;;;;;;11.98;8.50;;;1.60;99.90;;;;;;5074012;28;20231;-63
2024/01/18 07:51:57;;;;;;;8.20;7.38;;;1.60;99.90;;;;;;5074233;28;20583;-62
2024/01/18 07:54:24;;;;;;;10.13;7.07;;;1.60;99.90;;;;;;5073966;28;20657;-63
2024/01/18 07:56:50;;;;;;;8.80;7.10;;;1.60;99.90;;;;;;5071933;28;20229;-62
2024/01/18 07:59:17;;;;;;;8.95;7.43;;;1.60;99.90;;;;;;5073852;28;20564;-62
2024/01/18 08:01:45;;;;;;;8.73;7.82;;;1.60;99.90;;;;;;5073340;28;20296;-62
2024/01/18 08:04:12;;;;;;;7.90;6.97;;;1.60;99.90;;;;;;5074052;28;20222;-62
2024/01/18 08:06:39;;;;;;;7.78;6.60;;;1.60;99.90;;;;;;5074011;28;20202;-62
2024/01/18 08:09:11;;;;;;;9.48;6.93;;;1.50;99.90;;;;;;5073558;28;20206;-62
2024/01/18 08:11:38;;;;;;;8.98;7.40;;;1.50;99.90;;;;;;5073412;28;20202;-62
2024/01/18 08:14:05;;;;;;;8.35;7.50;;;1.50;99.90;;;;;;5073490;28;20218;-62
2024/01/18 08:16:32;;;;;;;11.63;7.07;;;1.60;99.90;;;;;;5073640;28;20670;-62
2024/01/18 08:18:59;;;;;;;9.20;7.85;;;1.50;99.90;;;;;;5073434;28;20220;-62
2024/01/18 08:21:26;;;;;;;7.05;6.35;;;1.50;99.90;;;;;;5073213;28;20647;-62
2024/01/18 08:23:53;;;;;;;10.40;5.88;;;1.60;99.90;;;;;;5072374;28;20263;-62
2024/01/18 08:26:21;;;;;;;6.90;6.20;;;1.60;99.90;;;;;;5072834;28;20280;-62
2024/01/18 08:28:48;;;;;;;7.60;6.50;;;1.60;99.90;;;;;;5072226;28;20210;-62
2024/01/18 08:31:15;;;;;;;9.32;6.60;;;1.60;99.90;;;;;;5072304;28;20212;-62
2024/01/18 08:33:42;;;;;;;7.70;6.55;;;1.60;99.90;;;;;;5072848;28;20217;-62
2024/01/18 08:36:09;;;;;;;6.72;6.13;;;1.60;99.90;;;;;;5072010;28;20237;-62
2024/01/18 08:38:36;;;;;;;9.30;6.78;;;1.50;99.90;;;;;;5068874;28;20201;-62
2024/01/18 08:41:03;;;;;;;9.48;7.07;;;1.50;99.90;;;;;;5071821;28;20229;-62
2024/01/18 08:43:31;;;;;;;10.00;7.88;;;1.50;99.90;;;;;;5072376;28;20226;-62
2024/01/18 08:45:59;;;;;;;11.50;7.22;;;1.50;99.90;;;;;;5072408;28;20197;-62
2024/01/18 08:48:26;;;;;;;11.27;9.63;;;1.50;99.90;;;;;;5072691;28;20626;-62
2024/01/18 08:50:53;;;;;;;10.50;8.60;;;1.50;99.90;;;;;;5071647;28;20209;-62
2024/01/18 08:53:20;;;;;;;9.70;8.27;;;1.50;99.90;;;;;;5072979;28;20312;-62
2024/01/18 08:55:47;;;;;;;7.32;6.53;;;1.50;99.90;;;;;;5072282;28;20639;-62
2024/01/18 08:58:14;;;;;;;8.63;6.40;;;1.50;99.90;;;;;;5072117;28;20657;-62
2024/01/18 09:00:42;;;;;;;6.22;5.60;;;1.60;99.90;;;;;;5071013;28;20213;-62
2024/01/18 09:03:09;;;;;;;8.27;6.78;;;1.60;99.90;;;;;;5066320;28;20230;-63
2024/01/18 09:05:36;;;;;;;7.75;7.03;;;1.60;99.90;;;;;;5072484;28;20284;-63
2024/01/18 09:08:02;;;;;;;8.77;6.22;;;1.60;99.90;;;;;;5072075;28;20318;-62
2024/01/18 09:10:29;;;;;;;7.25;6.55;;;1.60;99.90;;;;;;5070012;28;20210;-62
2024/01/18 09:12:56;;;;;;;7.47;6.72;;;1.60;99.90;;;;;;5071986;28;20296;-62
2024/01/18 09:15:24;;;;;;;7.63;5.90;;;1.60;99.90;;;;;;5069979;28;20205;-62
2024/01/18 09:17:52;;;;;;;8.35;7.18;;;1.60;99.90;;;;;;5069610;28;20222;-62
2024/01/18 09:20:19;;;;;;;6.50;5.85;;;1.60;99.90;;;;;;5071561;28;20205;-62
2024/01/18 09:22:46;;;;;;;7.65;6.05;;;1.60;99.90;;;;;;5072178;28;20245;-62
2024/01/18 09:25:13;;;;;;;6.53;5.95;;;1.60;99.90;;;;;;5071562;28;20224;-62
2024/01/18 09:27:40;;;;;;;6.55;5.45;;;1.60;99.90;;;;;;5071904;28;20206;-63
2024/01/18 09:30:09;;;;;;;7.50;5.20;;;1.60;99.90;;;;;;5070573;28;20644;-63
2024/01/18 09:32:36;;;;;;;7.32;6.63;;;1.60;99.90;;;;;;5071981;28;20217;-63
2024/01/18 09:35:06;;;;;;;7.13;6.07;;;1.60;99.90;;;;;;5070698;28;20379;-63
2024/01/18 09:37:33;;;;;;;5.53;5.03;;;1.60;99.90;;;;;;5071513;28;20217;-63
2024/01/18 09:40:00;;;;;;;9.13;5.30;;;1.70;99.90;;;;;;5071666;28;20211;-63
2024/01/18 09:42:32;;;;;;;7.00;5.32;;;1.70;99.90;;;;;;5071222;28;20318;-62
2024/01/18 09:45:07;;;;;;;6.43;5.70;;;1.60;99.90;;;;;;5070291;28;20297;-62
2024/01/18 09:47:34;;;;;;;5.15;4.65;;;1.70;99.90;;;;;;5072045;28;20209;-62
2024/01/18 09:50:00;;;;;;;5.93;5.38;;;1.70;99.90;;;;;;5071716;28;20567;-61
2024/01/18 09:52:29;;;;;;;5.75;5.00;;;1.70;99.90;;;;;;5071834;28;20205;-62
2024/01/18 09:54:56;;;;;;;6.10;5.18;;;1.70;99.90;;;;;;5070919;28;20724;-61
2024/01/18 09:57:30;;;;;;;5.45;4.95;;;1.70;99.90;;;;;;5071320;28;20652;-60
2024/01/18 09:59:58;;;;;;;4.22;3.83;;;1.70;99.90;;;;;;5071472;28;20642;-62
2024/01/18 10:02:26;;;;;;;6.20;4.90;;;1.60;99.90;;;;;;5071633;28;20205;-61
2024/01/18 10:04:55;;;;;;;6.68;6.03;;;1.60;99.90;;;;;;5071622;28;20293;-61
2024/01/18 10:07:22;;;;;;;5.85;5.35;;;1.60;99.90;;;;;;5071736;28;20198;-62
2024/01/18 10:09:50;;;;;;;5.28;4.50;;;1.50;99.90;;;;;;5070830;28;20293;-62
2024/01/18 10:12:17;;;;;;;5.63;4.70;;;1.60;99.90;;;;;;5071774;28;20297;-62
2024/01/18 10:14:45;;;;;;;11.57;5.28;;;1.60;99.90;;;;;;5071376;28;20296;-61
2024/01/18 10:17:21;;;;;;;7.35;5.22;;;1.60;99.90;;;;;;5071582;28;20264;-62
2024/01/18 10:19:50;;;;;;;3.88;3.58;;;1.60;99.90;;;;;;5070998;28;20216;-61
2024/01/18 10:22:18;;;;;;;5.03;3.97;;;1.60;99.90;;;;;;5071212;28;20687;-61
2024/01/18 10:24:45;;;;;;;3.80;3.50;;;1.60;99.90;;;;;;5070350;28;20615;-61
2024/01/18 10:27:14;;;;;;;7.80;5.38;;;1.50;99.90;;;;;;5071466;28;20212;-61
2024/01/18 10:29:41;;;;;;;7.18;6.10;;;1.50;99.90;;;;;;5070810;28;20289;-62
2024/01/18 10:32:08;;;;;;;5.40;4.60;;;1.60;99.90;;;;;;5071329;28;20209;-62
2024/01/18 10:34:35;;;;;;;4.80;4.40;;;1.60;99.90;;;;;;5070339;28;20674;-62
2024/01/18 10:37:02;;;;;;;5.78;4.60;;;1.60;99.90;;;;;;5069163;28;20233;-62
2024/01/18 10:39:39;;;;;;;3.50;3.17;;;1.60;99.90;;;;;;5070591;28;20312;-61
2024/01/18 10:42:08;;;;;;;3.40;3.15;;;1.60;99.90;;;;;;5070677;28;20210;-63
2024/01/18 10:44:41;;;;;;;3.42;3.10;;;1.50;99.90;;;;;;5070800;28;20212;-62
2024/01/18 10:47:09;;;;;;;4.15;3.78;;;1.50;99.90;;;;;;5070423;28;20293;-61
2024/01/18 10:49:37;;;;;;;4.30;3.75;;;1.50;99.90;;;;;;5070418;28;20209;-61
2024/01/18 10:52:05;;;;;;;4.15;3.30;;;1.50;99.90;;;;;;5070685;28;20205;-62
2024/01/18 10:54:32;;;;;;;3.53;3.22;;;1.50;99.90;;;;;;5070297;28;20225;-62
2024/01/18 10:57:00;;;;;;;5.03;3.10;;;1.60;99.90;;;;;;5070347;28;20232;-63
2024/01/18 10:59:28;;;;;;;3.75;3.35;;;1.60;99.90;;;;;;5070845;28;20270;-62
2024/01/18 11:01:59;;;;;;;3.65;3.35;;;1.60;99.90;;;;;;5070215;28;20745;-63
2024/01/18 11:04:27;;;;;;;2.85;2.65;;;1.60;99.90;;;;;;5070794;28;20313;-63
2024/01/18 11:06:55;;;;;;;5.82;3.05;;;1.60;99.90;;;;;;5074413;28;20208;-62
2024/01/18 11:09:23;;;;;;;3.90;3.55;;;1.60;99.90;;;;;;5073424;28;20213;-62
2024/01/18 11:11:51;;;;;;;6.20;4.45;;;1.60;99.90;;;;;;5072101;28;20209;-62
2024/01/18 11:14:19;;;;;;;3.50;3.20;;;1.60;99.90;;;;;;5073598;28;20254;-61
2024/01/18 11:16:46;;;;;;;4.93;3.60;;;1.60;99.90;;;;;;5073659;28;20784;-61
2024/01/18 11:19:17;;;;;;;5.07;3.72;;;1.60;99.90;;;;;;5073108;28;20206;-62
2024/01/18 11:21:44;;;;;;;3.55;3.33;;;1.60;99.90;;;;;;5073416;28;20370;-61
2024/01/18 11:24:12;;;;;;;3.47;3.17;;;1.60;99.90;;;;;;5073528;28;20762;-61
2024/01/18 11:26:39;;;;;;;4.65;4.25;;;1.60;99.90;;;;;;5073372;28;20216;-62
2024/01/18 11:29:19;;;;;;;4.32;3.90;;;1.60;99.90;;;;;;5074090;28;20237;-61
2024/01/18 11:31:49;;;;;;;5.15;4.45;;;1.60;99.90;;;;;;5073355;28;20205;-62
2024/01/18 11:34:30;;;;;;;5.80;4.70;;;1.60;99.90;;;;;;5073644;28;20232;-62
2024/01/18 11:37:10;;;;;;;4.78;3.85;;;1.60;99.90;;;;;;5074043;28;20236;-62
2024/01/18 11:39:56;;;;;;;5.70;4.40;;;1.50;99.90;;;;;;5073369;28;20208;-61
2024/01/18 11:42:24;;;;;;;4.35;4.05;;;1.50;99.90;;;;;;5073984;28;20642;-61
2024/01/18 11:44:55;;;;;;;4.50;4.10;;;1.60;99.90;;;;;;5073915;28;20288;-61
2024/01/18 11:47:23;;;;;;;3.72;3.10;;;1.60;99.90;;;;;;5073699;28;20754;-62
2024/01/18 11:49:52;;;;;;;3.55;2.95;;;1.60;99.90;;;;;;5073187;28;20271;-60
2024/01/18 11:52:22;;;;;;;3.85;3.55;;;1.60;99.90;;;;;;5074358;28;20202;-61
2024/01/18 11:54:52;;;;;;;3.78;3.47;;;1.60;99.90;;;;;;5073281;28;20584;-61
2024/01/18 11:57:19;;;;;;;6.55;5.57;;;1.70;99.90;;;;;;5074152;28;20226;-61
2024/01/18 11:59:46;;;;;;;7.63;5.88;;;1.70;99.90;;;;;;5072976;28;20297;-61
2024/01/18 12:02:14;;;;;;;9.43;8.52;;;1.70;99.90;;;;;;5073943;28;20314;-62
2024/01/18 12:04:41;;;;;;;14.32;9.80;;;1.70;99.90;;;;;;5073253;28;20285;-61
2024/01/18 12:07:11;;;;;;;12.27;10.30;;;1.70;99.90;;;;;;5073984;28;20643;-61
2024/01/18 12:09:39;;;;;;;15.05;11.77;;;1.60;99.90;;;;;;5073519;28;20569;-61
2024/01/18 12:12:07;;;;;;;17.52;12.02;;;1.60;99.90;;;;;;5073197;28;20274;-62
2024/01/18 12:14:39;;;;;;;13.95;11.43;;;1.60;99.90;;;;;;5073148;28;20221;-61
2024/01/18 12:17:06;;;;;;;16.73;12.38;;;1.60;99.90;;;;;;5071887;28;20208;-62
2024/01/18 12:19:34;;;;;;;16.88;12.80;;;1.60;99.90;;;;;;5073012;28;20369;-62
2024/01/18 12:22:02;;;;;;;17.17;13.13;;;1.60;99.90;;;;;;5071423;28;20213;-62
2024/01/18 12:24:30;;;;;;;13.50;12.07;;;1.70;99.90;;;;;;5072978;28;20221;-62
2024/01/18 12:26:57;;;;;;;14.63;10.35;;;1.60;99.90;;;;;;5071089;28;20205;-61
2024/01/18 12:29:25;;;;;;;16.50;12.68;;;1.60;99.90;;;;;;5072373;28;20204;-62
2024/01/18 12:31:51;;;;;;;15.57;13.40;;;1.60;99.90;;;;;;5068066;28;20219;-62
2024/01/18 12:34:20;;;;;;;18.27;13.57;;;1.60;99.90;;;;;;5073255;28;20308;-61
2024/01/18 12:36:47;;;;;;;18.38;15.05;;;1.60;99.90;;;;;;5070752;28;20202;-61
2024/01/18 12:39:14;;;;;;;20.30;16.33;;;1.60;99.90;;;;;;5065351;28;20225;-61
2024/01/18 12:41:42;;;;;;;19.40;16.83;;;1.60;99.90;;;;;;5072671;28;20221;-61
2024/01/18 12:44:09;;;;;;;12.27;10.98;;;1.60;99.90;;;;;;5070480;28;20229;-61
2024/01/18 12:46:36;;;;;;;13.68;11.80;;;1.60;99.90;;;;;;5070099;28;20640;-61
2024/01/18 12:49:03;;;;;;;15.60;11.43;;;1.60;99.90;;;;;;5072599;28;20209;-61